createdAt,value
2023-02-15T00:01:23.425Z,16.73
2023-02-15T00:03:50.570Z,13.50
2023-02-15T00:06:17.977Z,15.63
2023-02-15T00:08:45.811Z,15.02
2023-02-15T00:11:15.076Z,13.25
2023-02-15T00:13:44.456Z,13.30
2023-02-15T00:16:13.757Z,13.90
2023-02-15T00:18:40.612Z,15.38
2023-02-15T00:21:10.235Z,15.55
2023-02-15T00:23:37.526Z,15.73
2023-02-15T00:26:11.948Z,16.27
2023-02-15T00:28:39.291Z,17.02
2023-02-15T00:31:07.114Z,15.60
2023-02-15T00:33:33.765Z,19.48
2023-02-15T00:36:01.310Z,16.90
2023-02-15T00:38:29.427Z,17.58
2023-02-15T00:40:57.156Z,19.73
2023-02-15T00:43:23.980Z,17.55
2023-02-15T00:45:50.768Z,17.40
2023-02-15T00:48:17.736Z,19.70
2023-02-15T00:50:51.312Z,18.70
2023-02-15T00:53:17.986Z,16.35
2023-02-15T00:55:44.686Z,15.32
2023-02-15T00:58:11.753Z,15.63
2023-02-15T01:00:39.334Z,16.73
2023-02-15T01:03:06.320Z,16.45
2023-02-15T01:05:33.389Z,15.88
2023-02-15T01:08:00.592Z,16.75
2023-02-15T01:10:28.056Z,18.00
2023-02-15T01:12:56.053Z,18.08
2023-02-15T01:15:23.394Z,18.98
2023-02-15T01:17:54.218Z,19.35
2023-02-15T01:20:26.237Z,17.90
2023-02-15T01:22:55.458Z,18.20
2023-02-15T01:25:24.017Z,19.13
2023-02-15T01:27:50.854Z,16.00
2023-02-15T01:30:18.250Z,15.52
2023-02-15T01:32:44.819Z,15.20
2023-02-15T01:35:11.715Z,17.23
2023-02-15T01:37:38.428Z,18.15
2023-02-15T01:40:09.237Z,18.20
2023-02-15T01:42:35.961Z,19.77
2023-02-15T01:45:05.804Z,18.92
2023-02-15T01:48:06.119Z,17.50
2023-02-15T01:50:32.531Z,17.85
2023-02-15T01:53:19.233Z,17.40
2023-02-15T01:55:58.239Z,17.83
2023-02-15T01:58:27.846Z,19.17
2023-02-15T02:00:58.669Z,17.42
2023-02-15T02:03:42.642Z,19.08
2023-02-15T02:06:09.243Z,17.85
2023-02-15T02:08:36.178Z,19.80
2023-02-15T02:11:02.704Z,19.40
2023-02-15T02:13:29.583Z,18.73
2023-02-15T02:16:05.403Z,18.50
2023-02-15T02:18:47.401Z,18.42
2023-02-15T02:21:35.082Z,18.02
2023-02-15T02:24:20.155Z,18.08
2023-02-15T02:26:55.763Z,18.33
2023-02-15T02:30:01.695Z,19.83
2023-02-15T02:32:52.918Z,19.05
2023-02-15T02:35:39.703Z,20.08
2023-02-15T02:38:18.434Z,17.02
2023-02-15T02:40:59.170Z,19.88
2023-02-15T02:43:49.048Z,17.67
2023-02-15T02:46:41.911Z,19.48
2023-02-15T02:49:08.485Z,17.45
2023-02-15T02:51:34.979Z,18.90
2023-02-15T02:54:04.740Z,19.75
2023-02-15T02:56:37.887Z,20.05
2023-02-15T02:59:07.588Z,19.83
2023-02-15T03:01:40.382Z,16.70
2023-02-15T03:04:12.552Z,19.30
2023-02-15T03:07:02.469Z,19.50
2023-02-15T03:09:42.594Z,19.65
2023-02-15T03:14:49.452Z,20.00
2023-02-15T03:17:18.480Z,19.55
2023-02-15T03:19:47.370Z,19.10
2023-02-15T03:22:20.315Z,19.27
2023-02-15T03:25:14.640Z,21.48
2023-02-15T03:27:48.500Z,20.02
2023-02-15T03:30:19.642Z,19.63
2023-02-15T03:32:48.563Z,18.77
2023-02-15T03:35:15.482Z,17.77
2023-02-15T03:37:52.252Z,20.60
2023-02-15T03:40:47.972Z,17.98
2023-02-15T03:43:25.477Z,18.45
2023-02-15T03:45:56.785Z,18.45
2023-02-15T03:48:28.441Z,17.90
2023-02-15T03:51:21.246Z,19.33
2023-02-15T03:53:50.354Z,19.38
2023-02-15T03:56:16.871Z,18.43
2023-02-15T03:59:01.539Z,19.58
2023-02-15T04:02:01.441Z,18.55
2023-02-15T04:04:42.421Z,18.42
2023-02-15T04:07:10.599Z,20.33
2023-02-15T04:09:56.013Z,21.88
2023-02-15T04:12:22.753Z,21.23
2023-02-15T04:15:08.169Z,19.25
2023-02-15T04:17:36.489Z,19.33
2023-02-15T04:20:21.833Z,18.98
2023-02-15T04:23:06.977Z,20.15
2023-02-15T04:25:33.456Z,19.55
2023-02-15T04:27:59.971Z,18.95
2023-02-15T04:30:27.451Z,18.88
2023-02-15T04:32:55.774Z,19.17
2023-02-15T04:35:23.303Z,19.13
2023-02-15T04:37:49.862Z,19.05
2023-02-15T04:40:19.328Z,19.02
2023-02-15T04:42:49.985Z,17.15
2023-02-15T04:45:16.642Z,20.33
2023-02-15T04:47:43.106Z,20.88
2023-02-15T04:50:10.436Z,20.55
2023-02-15T04:52:37.219Z,21.70
2023-02-15T04:55:03.867Z,20.60
2023-02-15T04:57:30.411Z,19.48
2023-02-15T04:59:58.119Z,22.08
2023-02-15T05:02:24.631Z,21.70
2023-02-15T05:04:51.374Z,21.80
2023-02-15T05:07:18.629Z,20.75
2023-02-15T05:09:45.114Z,21.23
2023-02-15T05:12:11.596Z,19.63
2023-02-15T05:14:38.080Z,20.40
2023-02-15T05:17:06.209Z,19.35
2023-02-15T05:19:32.778Z,19.98
2023-02-15T05:21:59.232Z,18.95
2023-02-15T05:24:44.542Z,19.85
2023-02-15T05:27:32.499Z,20.42
2023-02-15T05:29:59.088Z,18.13
2023-02-15T05:32:25.783Z,19.30
2023-02-15T05:34:52.387Z,20.17
2023-02-15T05:37:18.924Z,20.35
2023-02-15T05:39:45.425Z,19.38
2023-02-15T05:42:11.975Z,19.13
2023-02-15T05:44:38.519Z,18.75
2023-02-15T05:47:05.521Z,18.27
2023-02-15T05:49:32.023Z,22.13
2023-02-15T05:51:58.511Z,19.92
2023-02-15T05:54:25.083Z,18.95
2023-02-15T05:56:51.545Z,19.55
2023-02-15T05:59:18.157Z,18.55
2023-02-15T06:01:44.689Z,19.27
2023-02-15T06:04:11.506Z,19.08
2023-02-15T06:06:38.030Z,18.90
2023-02-15T06:09:04.757Z,21.17
2023-02-15T06:11:31.339Z,20.42
2023-02-15T06:13:57.860Z,20.48
2023-02-15T06:16:24.328Z,20.75
2023-02-15T06:18:53.418Z,20.08
2023-02-15T06:21:20.198Z,20.60
2023-02-15T06:23:46.764Z,19.75
2023-02-15T06:26:13.332Z,19.10
2023-02-15T06:28:39.879Z,20.27
2023-02-15T06:31:06.513Z,21.80
2023-02-15T06:33:34.868Z,20.02
2023-02-15T06:36:01.936Z,21.05
2023-02-15T06:38:28.973Z,19.98
2023-02-15T06:40:55.549Z,19.27
2023-02-15T06:43:22.137Z,17.52
2023-02-15T06:45:48.904Z,19.60
2023-02-15T06:48:15.489Z,21.05
2023-02-15T06:50:42.103Z,20.70
2023-02-15T06:53:08.780Z,19.80
2023-02-15T06:55:35.294Z,19.73
2023-02-15T06:58:01.829Z,20.30
2023-02-15T07:00:28.327Z,20.83
2023-02-15T07:02:56.650Z,19.27
2023-02-15T07:05:24.300Z,20.95
2023-02-15T07:07:51.260Z,23.25
2023-02-15T07:10:17.920Z,22.45
2023-02-15T07:12:45.325Z,25.40
2023-02-15T07:15:18.471Z,23.10
2023-02-15T07:17:45.628Z,23.15
2023-02-15T07:20:18.363Z,23.52
2023-02-15T07:22:45.203Z,22.23
2023-02-15T07:25:12.893Z,23.52
2023-02-15T07:27:40.461Z,22.48
2023-02-15T07:30:10.304Z,23.65
2023-02-15T07:32:37.071Z,24.33
2023-02-15T07:35:03.615Z,25.13
2023-02-15T07:37:30.139Z,26.98
2023-02-15T07:39:56.654Z,23.92
2023-02-15T07:42:23.239Z,27.38
2023-02-15T07:44:50.122Z,26.90
2023-02-15T07:47:16.740Z,26.38
2023-02-15T07:49:43.258Z,26.20
2023-02-15T07:52:09.833Z,25.85
2023-02-15T07:54:36.323Z,23.88
2023-02-15T07:57:03.188Z,23.80
2023-02-15T07:59:29.816Z,26.02
2023-02-15T08:01:57.527Z,26.50
2023-02-15T08:04:24.828Z,26.50
2023-02-15T08:06:55.246Z,27.23
2023-02-15T08:09:22.080Z,25.25
2023-02-15T08:11:48.992Z,25.58
2023-02-15T08:14:18.635Z,25.65
2023-02-15T08:16:50.584Z,24.17
2023-02-15T08:19:21.253Z,24.38
2023-02-15T08:21:53.468Z,21.77
2023-02-15T08:24:22.232Z,24.48
2023-02-15T08:26:50.154Z,24.25
2023-02-15T08:29:19.558Z,22.00
2023-02-15T08:31:46.767Z,21.05
2023-02-15T08:34:17.002Z,21.77
2023-02-15T08:36:46.059Z,21.42
2023-02-15T08:39:13.725Z,22.40
2023-02-15T08:41:43.206Z,18.65
2023-02-15T08:44:11.247Z,22.23
2023-02-15T08:46:40.754Z,20.80
2023-02-15T08:49:07.673Z,20.90
2023-02-15T08:51:36.585Z,19.00
2023-02-15T08:54:09.535Z,19.77
2023-02-15T08:56:38.671Z,19.42
2023-02-15T08:59:06.702Z,18.80
2023-02-15T09:01:35.994Z,18.63
2023-02-15T09:04:11.349Z,19.70
2023-02-15T09:06:39.592Z,18.95
2023-02-15T09:09:07.469Z,19.85
2023-02-15T09:11:42.518Z,18.08
2023-02-15T09:14:25.405Z,18.83
2023-02-15T09:16:53.590Z,17.67
2023-02-15T09:19:22.228Z,18.05
2023-02-15T09:21:48.902Z,18.52
2023-02-15T09:24:17.931Z,17.33
2023-02-15T09:26:48.143Z,16.77
2023-02-15T09:29:15.714Z,15.25
2023-02-15T09:31:49.623Z,14.13
2023-02-15T09:34:18.367Z,14.93
2023-02-15T09:36:45.573Z,13.63
2023-02-15T09:39:15.239Z,14.05
2023-02-15T09:42:16.905Z,14.43
2023-02-15T09:44:55.425Z,14.88
2023-02-15T09:47:30.891Z,14.23
2023-02-15T09:50:25.749Z,15.45
2023-02-15T09:53:11.004Z,16.90
2023-02-15T09:56:03.317Z,15.95
2023-02-15T09:58:44.398Z,16.30
2023-02-15T10:01:36.112Z,16.50
2023-02-15T10:04:39.377Z,15.02
2023-02-15T10:07:24.248Z,15.98
2023-02-15T10:10:04.912Z,16.05
2023-02-15T10:12:47.449Z,17.02
2023-02-15T10:15:32.510Z,19.05
2023-02-15T10:18:21.545Z,22.95
2023-02-15T10:21:06.705Z,21.65
2023-02-15T10:23:46.427Z,17.00
2023-02-15T10:26:20.363Z,19.60
2023-02-15T10:28:56.311Z,22.63
2023-02-15T10:31:35.069Z,22.40
2023-02-15T10:34:20.004Z,21.83
2023-02-15T10:37:18.057Z,18.30
2023-02-15T10:40:08.964Z,21.23
2023-02-15T10:42:50.408Z,20.10
2023-02-15T10:45:45.481Z,21.75
2023-02-15T10:48:35.659Z,23.25
2023-02-15T10:53:58.046Z,21.05
2023-02-15T10:56:39.640Z,20.13
2023-02-15T10:59:24.411Z,21.42
2023-02-15T11:01:56.907Z,22.00
2023-02-15T11:04:40.796Z,20.60
2023-02-15T11:07:16.362Z,19.70
2023-02-15T11:09:51.726Z,23.50
2023-02-15T11:12:23.404Z,21.60
2023-02-15T11:14:54.164Z,17.98
2023-02-15T11:17:32.190Z,24.85
2023-02-15T11:20:10.913Z,20.33
2023-02-15T11:22:37.371Z,20.45
2023-02-15T11:25:25.172Z,18.85
2023-02-15T11:27:53.982Z,22.05
2023-02-15T11:30:23.425Z,20.05
2023-02-15T11:32:57.408Z,20.67
2023-02-15T11:35:30.586Z,26.42
2023-02-15T11:38:21.834Z,21.42
2023-02-15T11:40:50.672Z,22.65
2023-02-15T11:43:33.132Z,21.15
2023-02-15T11:45:59.751Z,21.50
2023-02-15T11:48:26.491Z,22.38
2023-02-15T11:50:53.042Z,22.40
2023-02-15T11:53:25.698Z,26.40
2023-02-15T11:55:52.910Z,20.90
2023-02-15T11:58:41.486Z,21.00
2023-02-15T12:01:28.374Z,23.38
2023-02-15T12:04:08.173Z,21.60
2023-02-15T12:06:42.183Z,22.35
2023-02-15T12:09:23.729Z,27.05
2023-02-15T12:11:50.445Z,23.10
2023-02-15T12:14:16.937Z,22.13
2023-02-15T12:16:49.654Z,23.95
2023-02-15T12:19:33.873Z,21.17
2023-02-15T12:22:03.191Z,22.83
2023-02-15T12:24:34.116Z,22.08
2023-02-15T12:27:03.630Z,26.15
2023-02-15T12:29:36.793Z,24.23
2023-02-15T12:32:04.616Z,22.63
2023-02-15T12:34:43.726Z,21.45
2023-02-15T12:37:26.470Z,21.27
2023-02-15T12:39:58.813Z,23.75
2023-02-15T12:42:26.887Z,21.58
2023-02-15T12:44:57.340Z,21.42
2023-02-15T12:47:29.007Z,21.98
2023-02-15T12:50:12.616Z,27.23
2023-02-15T12:52:40.160Z,20.25
2023-02-15T12:55:30.654Z,22.45
2023-02-15T12:58:19.343Z,23.50
2023-02-15T13:00:46.922Z,27.15
2023-02-15T13:03:22.603Z,23.30
2023-02-15T13:05:54.589Z,23.02
2023-02-15T13:08:28.104Z,25.27
2023-02-15T13:11:03.372Z,20.48
2023-02-15T13:13:35.308Z,21.15
2023-02-15T13:16:16.014Z,20.48
2023-02-15T13:18:47.707Z,21.92
2023-02-15T13:21:21.705Z,22.40
2023-02-15T13:24:17.128Z,20.13
2023-02-15T13:26:46.491Z,21.30
2023-02-15T13:29:25.204Z,23.55
2023-02-15T13:31:54.029Z,21.95
2023-02-15T13:34:36.050Z,20.23
2023-02-15T13:37:16.132Z,22.17
2023-02-15T13:42:22.162Z,23.05
2023-02-15T13:45:23.256Z,21.85
2023-02-15T13:48:36.912Z,27.05
2023-02-15T13:51:35.840Z,24.13
2023-02-15T13:54:24.667Z,25.90
2023-02-15T13:57:02.036Z,22.33
2023-02-15T14:00:10.552Z,22.20
2023-02-15T14:02:42.894Z,25.58
2023-02-15T14:05:31.846Z,22.73
2023-02-15T14:08:36.495Z,22.13
2023-02-15T14:11:21.364Z,23.00
2023-02-15T14:14:12.680Z,22.92
2023-02-15T14:17:13.152Z,27.75
2023-02-15T14:19:55.270Z,24.25
2023-02-15T14:22:39.903Z,27.52
2023-02-15T14:25:15.833Z,22.10
2023-02-15T14:27:53.333Z,27.00
2023-02-15T14:30:24.561Z,21.05
2023-02-15T14:32:57.568Z,25.38
2023-02-15T14:35:30.303Z,21.65
2023-02-15T14:38:15.573Z,25.63
2023-02-15T14:41:04.387Z,21.83
2023-02-15T14:43:53.318Z,20.10
2023-02-15T14:46:32.135Z,24.63
2023-02-15T14:49:22.103Z,22.50
2023-02-15T14:51:48.601Z,21.90
2023-02-15T14:54:24.044Z,27.58
2023-02-15T14:57:02.446Z,25.00
2023-02-15T14:59:47.666Z,29.45
2023-02-15T15:02:25.695Z,24.45
2023-02-15T15:05:08.982Z,27.73
2023-02-15T15:07:45.090Z,26.67
2023-02-15T15:10:17.848Z,28.45
2023-02-15T15:12:47.018Z,25.38
2023-02-15T15:15:47.346Z,22.23
2023-02-15T15:18:46.398Z,36.97
2023-02-15T15:21:47.808Z,23.55
2023-02-15T15:24:39.348Z,26.70
2023-02-15T15:27:42.769Z,22.30
2023-02-15T15:30:15.324Z,23.75
2023-02-15T15:32:49.089Z,23.17
2023-02-15T15:35:37.526Z,23.20
2023-02-15T15:38:22.528Z,23.35
2023-02-15T15:41:22.688Z,26.23
2023-02-15T15:46:53.903Z,24.23
2023-02-15T15:49:24.211Z,20.13
2023-02-15T15:51:51.525Z,23.20
2023-02-15T15:54:23.075Z,24.60
2023-02-15T15:56:57.339Z,23.13
2023-02-15T15:59:27.423Z,25.38
2023-02-15T16:04:32.782Z,24.92
2023-02-15T16:07:16.858Z,25.60
2023-02-15T16:10:05.639Z,24.38
2023-02-15T16:12:35.825Z,24.92
2023-02-15T16:15:15.615Z,23.10
2023-02-15T16:17:45.947Z,24.63
2023-02-15T16:20:19.780Z,25.48
2023-02-15T16:22:54.599Z,25.75
2023-02-15T16:25:37.951Z,25.00
2023-02-15T16:28:13.213Z,23.10
2023-02-15T16:30:41.286Z,23.25
2023-02-15T16:33:07.740Z,23.38
2023-02-15T16:35:35.899Z,23.33
2023-02-15T16:38:03.707Z,24.30
2023-02-15T16:40:43.584Z,26.10
2023-02-15T16:43:17.245Z,25.25
2023-02-15T16:45:44.378Z,22.58
2023-02-15T16:48:24.560Z,22.83
2023-02-15T16:50:58.742Z,21.27
2023-02-15T16:53:29.646Z,26.08
2023-02-15T16:55:59.326Z,24.55
2023-02-15T16:58:45.097Z,28.13
2023-02-15T17:01:16.704Z,24.90
2023-02-15T17:03:43.515Z,25.42
2023-02-15T17:06:27.440Z,24.13
2023-02-15T17:09:04.664Z,24.73
2023-02-15T17:11:37.738Z,25.05
2023-02-15T17:14:07.740Z,23.63
2023-02-15T17:19:27.673Z,27.00
2023-02-15T17:21:57.693Z,26.50
2023-02-15T17:27:32.757Z,25.48
2023-02-15T17:30:10.092Z,25.33
2023-02-15T17:32:37.842Z,28.35
2023-02-15T17:35:05.036Z,28.33
2023-02-15T17:37:33.345Z,25.90
2023-02-15T17:40:01.709Z,26.42
2023-02-15T17:42:28.513Z,25.63
2023-02-15T17:44:55.040Z,25.83
2023-02-15T17:47:25.603Z,33.25
2023-02-15T17:49:53.491Z,29.27
2023-02-15T17:52:20.165Z,24.30
2023-02-15T17:55:05.335Z,25.55
2023-02-15T17:57:31.826Z,27.35
2023-02-15T18:00:18.938Z,26.48
2023-02-15T18:03:05.325Z,24.65
2023-02-15T18:05:50.949Z,26.45
2023-02-15T18:08:38.037Z,22.83
2023-02-15T18:11:23.377Z,25.48
2023-02-15T18:13:49.901Z,23.88
2023-02-15T18:16:23.920Z,29.88
2023-02-15T18:18:50.536Z,29.10
2023-02-15T18:21:17.067Z,24.58
2023-02-15T18:23:43.568Z,23.90
2023-02-15T18:26:17.494Z,24.45
2023-02-15T18:28:44.060Z,24.88
2023-02-15T18:31:11.736Z,26.90
2023-02-15T18:33:50.577Z,27.92
2023-02-15T18:36:28.249Z,28.15
2023-02-15T18:38:55.850Z,26.88
2023-02-15T18:41:23.044Z,29.33
2023-02-15T18:43:50.059Z,28.13
2023-02-15T18:46:17.767Z,27.30
2023-02-15T18:48:46.332Z,24.88
2023-02-15T18:51:20.446Z,27.05
2023-02-15T18:53:53.051Z,25.17
2023-02-15T18:56:22.460Z,27.08
2023-02-15T18:58:49.355Z,28.25
2023-02-15T19:01:18.695Z,25.83
2023-02-15T19:03:50.025Z,27.00
2023-02-15T19:06:19.828Z,27.90
2023-02-15T19:08:49.185Z,25.98
2023-02-15T19:11:25.673Z,29.10
2023-02-15T19:13:53.435Z,27.00
2023-02-15T19:16:32.802Z,24.75
2023-02-15T19:19:00.311Z,39.40
2023-02-15T19:21:32.008Z,26.25
2023-02-15T19:24:03.380Z,27.48
2023-02-15T19:26:44.379Z,23.58
2023-02-15T19:29:14.546Z,24.60
2023-02-15T19:31:41.574Z,23.70
2023-02-15T19:34:16.365Z,23.67
2023-02-15T19:36:45.382Z,23.42
2023-02-15T19:39:24.428Z,22.33
2023-02-15T19:41:51.683Z,24.80
2023-02-15T19:44:18.376Z,25.17
2023-02-15T19:46:45.688Z,25.88
2023-02-15T19:49:12.423Z,25.33
2023-02-15T19:51:39.955Z,24.65
2023-02-15T19:54:31.552Z,22.60
2023-02-15T19:56:58.530Z,24.10
2023-02-15T19:59:27.094Z,24.45
2023-02-15T20:01:54.134Z,22.77
2023-02-15T20:04:20.696Z,22.88
2023-02-15T20:06:49.486Z,21.05
2023-02-15T20:09:40.816Z,22.75
2023-02-15T20:12:25.594Z,21.40
2023-02-15T20:14:52.916Z,21.13
2023-02-15T20:17:20.014Z,21.15
2023-02-15T20:19:46.489Z,23.38
2023-02-15T20:22:25.242Z,23.58
2023-02-15T20:24:55.591Z,23.20
2023-02-15T20:27:22.561Z,20.95
2023-02-15T20:29:50.557Z,22.83
2023-02-15T20:32:17.273Z,20.15
2023-02-15T20:34:43.880Z,20.48
2023-02-15T20:37:22.483Z,24.48
2023-02-15T20:39:50.185Z,21.20
2023-02-15T20:42:17.752Z,20.60
2023-02-15T20:44:44.304Z,21.98
2023-02-15T20:47:10.798Z,19.17
2023-02-15T20:49:38.620Z,17.80
2023-02-15T20:52:18.320Z,17.90
2023-02-15T20:54:44.836Z,17.65
2023-02-15T20:57:14.721Z,14.73
2023-02-15T20:59:41.698Z,15.00
2023-02-15T21:02:15.955Z,15.80
2023-02-15T21:04:42.447Z,16.20
2023-02-15T21:07:20.233Z,15.90
2023-02-15T21:09:46.875Z,16.13
2023-02-15T21:12:18.373Z,15.02
2023-02-15T21:14:45.520Z,14.25
2023-02-15T21:17:13.829Z,16.65
2023-02-15T21:19:41.466Z,15.95
2023-02-15T21:22:12.987Z,14.52
2023-02-15T21:24:44.206Z,15.60
2023-02-15T21:27:13.094Z,12.90
2023-02-15T21:29:39.610Z,14.63
2023-02-15T21:32:06.093Z,14.48
2023-02-15T21:34:32.717Z,14.48
2023-02-15T21:36:59.249Z,12.65
2023-02-15T21:39:36.213Z,16.40
2023-02-15T21:42:25.247Z,13.75
2023-02-15T21:45:09.986Z,13.18
2023-02-15T21:47:51.581Z,13.38
2023-02-15T21:50:39.275Z,13.52
2023-02-15T21:53:07.506Z,12.93
2023-02-15T21:55:34.027Z,11.05
2023-02-15T21:58:01.377Z,14.18
2023-02-15T22:00:28.788Z,13.10
2023-02-15T22:02:58.272Z,13.68
2023-02-15T22:05:28.346Z,15.02
2023-02-15T22:10:22.844Z,14.05
2023-02-15T22:12:50.707Z,15.52
2023-02-15T22:15:20.073Z,15.57
2023-02-15T22:17:46.871Z,16.58
2023-02-15T22:20:15.109Z,14.73
2023-02-15T22:22:41.657Z,17.48
2023-02-15T22:25:08.293Z,16.70
2023-02-15T22:27:39.371Z,15.30
2023-02-15T22:30:20.060Z,17.33
2023-02-15T22:32:46.846Z,18.42
2023-02-15T22:35:19.226Z,17.63
2023-02-15T22:37:45.706Z,16.67
2023-02-15T22:40:17.405Z,18.58
2023-02-15T22:42:50.557Z,17.73
2023-02-15T22:45:20.688Z,17.17
2023-02-15T22:47:49.136Z,18.52
2023-02-15T22:50:21.978Z,20.65
2023-02-15T22:52:49.367Z,19.98
2023-02-15T22:55:21.727Z,19.73
2023-02-15T22:57:51.410Z,20.58
2023-02-15T23:00:20.839Z,24.67
2023-02-15T23:02:47.392Z,19.13
2023-02-15T23:05:21.504Z,19.10
2023-02-15T23:07:49.332Z,20.90
2023-02-15T23:10:21.320Z,21.00
2023-02-15T23:13:14.853Z,19.65
2023-02-15T23:15:43.209Z,21.02
2023-02-15T23:18:18.147Z,18.50
2023-02-15T23:21:01.059Z,21.52
2023-02-15T23:23:31.862Z,21.73
2023-02-15T23:25:59.076Z,19.27
2023-02-15T23:28:33.683Z,18.85
2023-02-15T23:31:00.335Z,22.00
2023-02-15T23:33:31.298Z,17.63
2023-02-15T23:35:58.521Z,21.60
2023-02-15T23:38:30.450Z,22.27
2023-02-15T23:41:21.086Z,16.98
2023-02-15T23:43:58.359Z,18.20
2023-02-15T23:46:28.455Z,18.80
2023-02-15T23:51:27.419Z,16.45
2023-02-15T23:53:53.912Z,15.88
2023-02-15T23:56:20.389Z,16.60
2023-02-15T23:58:47.952Z,16.83
